Michigan Logo

Waterford, MI Single Family Real Estate Listings

196 Total Real Estate Listings * Click on table heading to sort
Date Posted Property Type Style Address Price Living Area Lot Size Price/Sq Ft.
2018-10-17 Single Family Ranch 3600 Lotus Drive Waterford, MI 48329 $210,000 1,348 sq. ft. 10,019 sq. ft. $156
2018-10-17 Single Family Colonial 1073 Princeton Drive Waterford, MI 48327 $249,900 1,855 sq. ft. $135
2018-10-17 Single Family Ranch 5863 Aylesbury Drive Waterford, MI 48327 $139,999 912 sq. ft. 8,712 sq. ft. $154
2018-10-17 Single Family Ranch Lot C New Clintonville Road Waterford, MI 48329 $510,990 1,985 sq. ft. 47,480 sq. ft. $257
2018-10-16 Single Family Cape Cod 4825 Kempf Street Waterford, MI 48329 $245,000 2,147 sq. ft. 19,602 sq. ft. $114
2018-10-16 Single Family Ranch 7246 Garvin Waterford, MI 48329 $219,900 1,270 sq. ft. 7,841 sq. ft. $173
2018-10-16 Single Family Colonial 4409 Forest Avenue Waterford, MI 48328 $549,900 2,758 sq. ft. 6,098 sq. ft. $199
2018-10-16 Single Family Colonial Lot A New Clintonville Road Waterford, MI 48329 $507,990 2,432 sq. ft. 52,272 sq. ft. $209
2018-10-16 Single Family Ranch 5806 Dwight Avenue Waterford, MI 48327 $159,000 1,544 sq. ft. 16,553 sq. ft. $103
2018-10-16 Single Family Ranch 3006 Shawnee Waterford, MI 48329 $379,900 2,269 sq. ft. $167
2018-10-16 Single Family Colonial 2925 Coventry Drive Waterford, MI 48329 $245,000 1,650 sq. ft. 13,939 sq. ft. $148
2018-10-15 Single Family Ranch 3898 Breaker Street Waterford, MI 48329 $179,900 1,349 sq. ft. 11,326 sq. ft. $133
2018-10-15 Single Family Ranch 5711 Berkley Drive Waterford, MI 48327 $199,500 1,354 sq. ft. 16,117 sq. ft. $147
2018-10-15 Single Family 5840 Pontiac Lake Road Waterford, MI 48327 $169,000 1,462 sq. ft. 11,761 sq. ft. $116
2018-10-15 Single Family Ranch 4913 Pontiac Lake Road Waterford, MI 48328 $140,000 884 sq. ft. 13,068 sq. ft. $158
2018-10-15 Single Family Contemporary 1204 Larch Pl Waterford, MI 48328 $529,000 2,739 sq. ft. 6,970 sq. ft. $193
2018-10-15 Single Family Contemporary 1353 Grinnel Court Waterford, MI 48328 $1,199,000 5,093 sq. ft. 45,738 sq. ft. $235
2018-10-15 Single Family Ranch 120 Pleasant Lake Drive Waterford, MI 48327 $240,000 1,587 sq. ft. 11,761 sq. ft. $151
2018-10-15 Single Family Ranch 3502 Shelby St Waterford, MI 48328 $139,900 1,086 sq. ft. 14,375 sq. ft. $129
2018-10-14 Single Family Ranch 2333 Pauline Drive Waterford, MI 48329 $208,900 1,837 sq. ft. 15,246 sq. ft. $114
2018-10-14 Single Family Raised Ranch 5852 Artesian Drive Waterford, MI 48327 $222,000 1,724 sq. ft. 4,792 sq. ft. $129
2018-10-13 Single Family Ranch 3978 Cresthaven Drive Waterford, MI 48328 $144,900 984 sq. ft. 6,970 sq. ft. $147
2018-10-13 Single Family Raised Ranch 3430 Coseyburn Road Waterford, MI 48329 $249,900 2,350 sq. ft. 23,522 sq. ft. $106
2018-10-12 Single Family Colonial 2377 Lansbury Drive Waterford, MI 48329 $264,900 2,200 sq. ft. 11,761 sq. ft. $120
2018-10-12 Single Family Ranch 3700 Walton Boulevard Waterford, MI 48329 $148,900 896 sq. ft. 22,216 sq. ft. $166
2018-10-12 Single Family Ranch 457 Marion Avenue Waterford, MI 48328 $89,900 806 sq. ft. 13,068 sq. ft. $112
2018-10-12 Single Family Ranch 2896 Beacham Drive Waterford, MI 48329 $188,900 1,444 sq. ft. 14,810 sq. ft. $131
2018-10-12 Single Family Contemporary 612 Salus Drive Waterford, MI 48327 $269,000 2,281 sq. ft. $118
2018-10-11 Single Family Contemporary 696 Estes Court Waterford, MI 48327 $219,900 1,610 sq. ft. 12,632 sq. ft. $137
2018-10-11 Single Family Colonial 7077 Rolling Hills Drive Waterford, MI 48327 $169,900 1,212 sq. ft. $140
2018-10-11 Single Family Ranch 6700 Saline Drive Waterford, MI 48329 $139,900 960 sq. ft. 6,970 sq. ft. $146
2018-10-11 Single Family Colonial 1413 Oregon Boulevard Waterford, MI 48327 $160,000 1,238 sq. ft. 3,049 sq. ft. $129
2018-10-10 Single Family Colonial 3426 Harbours Boulevard Waterford, MI 48328 $339,900 2,188 sq. ft. $155
2018-10-10 Single Family Ranch 2849 Birchwood Drive Waterford, MI 48329 $217,000 1,381 sq. ft. $157
2018-10-10 Single Family 1190 Hira Street Waterford, MI 48328 $150,000 1,400 sq. ft. 14,810 sq. ft. $107
2018-10-10 Single Family Bungalow 3044 Barkman Drive Waterford, MI 48349 $174,900 1,491 sq. ft. $117
2018-10-10 Single Family Colonial 77 Leota Boulevard Waterford, MI 48327 $349,900 2,699 sq. ft. 16,553 sq. ft. $130
2018-10-09 Single Family Contemporary 2463 Grandview Boulevard Waterford, MI 48327 $185,000 1,656 sq. ft. 9,583 sq. ft. $112
2018-10-09 Single Family Ranch 6970 Hatchery Road Waterford, MI 48327 $425,000 2,275 sq. ft. 18,731 sq. ft. $187
2018-10-09 Single Family Bungalow 443 Marian Avenue Waterford, MI 48328 $149,900 1,260 sq. ft. 13,068 sq. ft. $119
2018-10-09 Single Family Bungalow 3180 Mccormick Drive Waterford, MI 48328 $162,750 1,461 sq. ft. 25,265 sq. ft. $111
2018-10-08 Single Family Bungalow 2821 Edgefield Drive Waterford, MI 48328 $99,900 923 sq. ft. 6,098 sq. ft. $108
2018-10-08 Single Family Colonial 4222 Rural Street Waterford, MI 48329 $359,000 4,308 sq. ft. 76,666 sq. ft. $83
2018-10-08 Single Family Ranch 7561 Turrillium Lane Waterford, MI 48327 $265,777 1,600 sq. ft. 13,504 sq. ft. $166
2018-10-06 Single Family Bungalow 2855 Mann Road Waterford, MI 48329 $189,646 1,100 sq. ft. 87,120 sq. ft. $172
2018-10-05 Single Family Bungalow 5521 Tubbs Waterford, MI 48327 $175,000 993 sq. ft. 63,598 sq. ft. $176
2018-10-05 Single Family 4148 Ironside Dr Waterford, MI 48329 $209,995 1,550 sq. ft. 10,454 sq. ft. $135
2018-10-05 Single Family Colonial 7711 Bridge Road Waterford, MI 48329 $249,900 1,575 sq. ft. 7,405 sq. ft. $159
2018-10-05 Single Family Ranch 5747 Lockwood Drive Waterford, MI 48329 $219,000 1,381 sq. ft. 8,276 sq. ft. $159
2018-10-05 Single Family Ranch 411 Clayburn Boulevard Waterford, MI 48327 $139,900 1,066 sq. ft. 9,583 sq. ft. $131
2018-10-04 Single Family Ranch 3200 Pirrin Drive Waterford, MI 48329 $139,900 1,631 sq. ft. 15,246 sq. ft. $86
2018-10-04 Single Family Contemporary 4441 Red Oak Boulevard Waterford, MI 48329 $319,000 2,137 sq. ft. 11,326 sq. ft. $149
2018-10-04 Single Family Colonial 5192 Durnham Drive Waterford, MI 48327 $385,000 2,610 sq. ft. 3,920 sq. ft. $148
2018-10-04 Single Family Ranch 3051 Tina Marie Drive Waterford, MI 48329 $254,000 1,623 sq. ft. 15,246 sq. ft. $156
2018-10-03 Single Family Ranch 2487 Jones Street Waterford, MI 48327 $225,500 1,371 sq. ft. 10,019 sq. ft. $164
2018-10-03 Single Family Colonial 4130 Cass Elizabeth Road Waterford, MI 48328 $154,900 1,477 sq. ft. $105
2018-10-03 Single Family Ranch 5508 Cruse Avenue Waterford, MI 48327 $174,900 1,164 sq. ft. 14,375 sq. ft. $150
2018-10-03 Single Family Colonial 4539 Thirza Court Waterford, MI 48329 $169,000 2,015 sq. ft. 11,326 sq. ft. $84
2018-10-03 Single Family Colonial; Contemporary 1219 Forest Bay Drive Waterford, MI 48328 $369,000 2,700 sq. ft. 13,068 sq. ft. $137
2018-10-02 Single Family Colonial 6012 Jennifer Crescent Waterford, MI 48324 $349,900 2,830 sq. ft. 6,970 sq. ft. $124
2018-10-02 Single Family Colonial 2585 Desmond Waterford, MI 48329 $215,000 1,728 sq. ft. 9,148 sq. ft. $124
2018-10-01 Single Family Colonial 1248 Parkway Waterford, MI 48328 $324,900 2,400 sq. ft. $135
2018-10-01 Single Family Colonial 4840 Parkridge Dr Waterford, MI 48329 $425,000 1,916 sq. ft. 10,019 sq. ft. $222
2018-10-01 Single Family Ranch 3334 Mann Road Waterford, MI 48346 $199,950 1,196 sq. ft. 27,878 sq. ft. $167
2018-10-01 Single Family Ranch 7272 Hatchery Road Waterford, MI 48327 $624,900 1,650 sq. ft. 23,522 sq. ft. $379
2018-10-01 Single Family Ranch 699 Winding Drive Waterford, MI 48328 $203,900 1,668 sq. ft. 6,098 sq. ft. $122
2018-10-01 Single Family Colonial 4436 Forest Avenue Waterford, MI 48328 $314,900 1,960 sq. ft. $161
2018-09-30 Single Family Colonial 1865 Watkins Lake Road Waterford, MI 48328 $650,000 2,437 sq. ft. 7,405 sq. ft. $267
2018-09-30 Single Family Colonial 4332 Lanette Drive Waterford, MI 48328 $199,900 1,871 sq. ft. 10,890 sq. ft. $107
2018-09-29 Single Family Ranch 4170 Farner Waterford, MI 48329 $130,000 960 sq. ft. 10,890 sq. ft. $135
2018-09-29 Single Family Colonial 2133 Glenshire Lane Waterford, MI 48329 $239,900 1,966 sq. ft. 22,216 sq. ft. $122
2018-09-28 Single Family 2566 Driftwood Drive Waterford, MI 48329 $194,500 1,605 sq. ft. 6,970 sq. ft. $121
2018-09-28 Single Family Ranch 6118 Andersonville Road Waterford, MI 48329 $138,000 820 sq. ft. 10,019 sq. ft. $168
2018-09-28 Single Family Ranch 3096 Warren Drive Waterford, MI 48329 $64,900 656 sq. ft. 10,019 sq. ft. $99
2018-09-28 Single Family Colonial 4735 Elizabeth Lake Road Waterford, MI 48327 $205,000 1,400 sq. ft. 6,098 sq. ft. $146
2018-09-28 Single Family Ranch 3248 Van Campen Drive Waterford, MI 48329 $112,500 900 sq. ft. 6,098 sq. ft. $125
2018-09-27 Single Family Ranch 6196 Meadowgreene Drive Waterford, MI 48327 $199,000 1,341 sq. ft. 12,632 sq. ft. $148
2018-09-27 Single Family Ranch 4538 Motorway Drive Waterford, MI 48328 $289,000 2,200 sq. ft. 15,246 sq. ft. $131
2018-09-26 Single Family Ranch 1371 Dundee Drive Waterford, MI 48327 $184,900 1,056 sq. ft. 13,504 sq. ft. $175
2018-09-26 Single Family Colonial 289 Madeleine Lane Waterford, MI 48328 $439,000 3,723 sq. ft. 9,148 sq. ft. $118
2018-09-26 Single Family Colonial 2925 Coventry Drive Waterford, MI 48329 $249,900 1,650 sq. ft. 13,939 sq. ft. $151
2018-09-26 Single Family Bungalow 2585 Watkins Lake Road Waterford, MI 48328 $144,900 1,276 sq. ft. 7,841 sq. ft. $114
2018-09-25 Single Family Ranch 409 Hillcliff Waterford, MI 48328 $209,900 1,176 sq. ft. 43,560 sq. ft. $178
2018-09-24 Single Family Colonial 4511 Sedum Glen Waterford, MI 48328 $299,900 1,960 sq. ft. $153
2018-09-24 Single Family Farmhouse 3645 Richmond Street Waterford, MI 48328 $189,000 1,620 sq. ft. 7,405 sq. ft. $117
2018-09-21 Single Family Colonial 2369 Lansbury Drive Waterford, MI 48329 $266,900 2,125 sq. ft. 18,731 sq. ft. $126
2018-09-20 Single Family Colonial 6803 Fox Lane Waterford, MI 48327 $149,900 1,517 sq. ft. $99
2018-09-19 Single Family Colonial 6253 Andersonville Road Waterford, MI 48329 $179,900 1,740 sq. ft. 10,019 sq. ft. $103
2018-09-19 Single Family Contemporary 654 Woodcreek Drive Waterford, MI 48327 $275,900 2,000 sq. ft. $138
2018-09-19 Single Family Colonial 2824 Rowan Boulevard Waterford, MI 48329 $249,900 1,384 sq. ft. 4,356 sq. ft. $181
2018-09-19 Single Family Raised Ranch 4050 Aquarina Street Waterford, MI 48329 $330,000 2,284 sq. ft. 19,602 sq. ft. $144
2018-09-18 Single Family Ranch 2978 Shawnee Lane Waterford, MI 48329 $349,900 2,174 sq. ft. 13,504 sq. ft. $161
2018-09-17 Single Family Bungalow 5733 Crescent Road Waterford, MI 48327 $155,000 1,596 sq. ft. 6,098 sq. ft. $97
2018-09-17 Single Family Bungalow 816 Ledyard Street Waterford, MI 48328 $124,500 1,011 sq. ft. 7,405 sq. ft. $123
2018-09-16 Single Family Colonial 7647 Peninsula Court Waterford, MI 48327 $259,900 2,112 sq. ft. 8,712 sq. ft. $123
2018-09-16 Single Family Colonial 2656 Montebello Waterford, MI 48329 $224,900 1,823 sq. ft. 14,375 sq. ft. $123
2018-09-15 Single Family Colonial 6942 Hatchery Road Waterford, MI 48327 $369,900 1,811 sq. ft. 5,227 sq. ft. $204
2018-09-15 Single Family Ranch 321 Lake Meadow Drive Waterford, MI 48327 $227,000 1,570 sq. ft. 7,405 sq. ft. $145
2018-09-14 Single Family Cape Cod 4631 Kempf Street Waterford, MI 48329 $285,000 1,468 sq. ft. 14,375 sq. ft. $194
2018-09-13 Single Family Ranch 2325 Denby Drive Waterford, MI 48329 $135,000 785 sq. ft. 16,117 sq. ft. $172
2018-09-13 Single Family Contemporary 2623 Desmond Waterford, MI 48329 $214,900 1,535 sq. ft. 5,663 sq. ft. $140
2018-09-13 Single Family 4145 Clintonville Road Waterford, MI 48329 $255,000 3,220 sq. ft. 17,424 sq. ft. $79
2018-09-12 Single Family Contemporary 6624 Lanman Drive Waterford, MI 48329 $179,900 1,451 sq. ft. 6,098 sq. ft. $124
2018-09-12 Single Family Colonial 3406 Clayton Waterford, MI 48329 $174,900 1,678 sq. ft. 10,454 sq. ft. $104
2018-09-12 Single Family Ranch 3006 Shawnee Waterford, MI 48329 $379,900 2,269 sq. ft. $167
2018-09-12 Single Family Ranch 5345 Clinton River Drive Waterford, MI 48327 $259,900 1,612 sq. ft. 10,454 sq. ft. $161
2018-09-11 Single Family Colonial 3888 Nelsey Road Waterford, MI 48329 $199,900 1,849 sq. ft. 14,810 sq. ft. $108
2018-09-10 Single Family Contemporary 7640 Pleasant Brook Drive Waterford, MI 48327 $279,900 1,922 sq. ft. 12,197 sq. ft. $146
2018-09-08 Single Family Ranch 4177 Conne Mara Lane Waterford, MI 48329 $239,999 1,843 sq. ft. 15,246 sq. ft. $130
2018-09-06 Single Family Cape Cod; Colonial; Contemporary 7845 Allan Court Waterford, MI 48327 $299,900 2,225 sq. ft. 40,946 sq. ft. $135
2018-09-05 Single Family Colonial; Contemporary 5723 Lockwood Drive Waterford, MI 48329 $224,500 1,463 sq. ft. $153
2018-09-05 Single Family 6035 Eldridge Drive Waterford, MI 48327 $878,000 2,706 sq. ft. 580,219 sq. ft. $324
2018-09-04 Single Family Raised Ranch 4278 Forest Valley Court Waterford, MI 48328 $435,000 2,557 sq. ft. $170
2018-09-04 Single Family Ranch 5510 Dons Drive Waterford, MI 48329 $229,900 1,698 sq. ft. 17,424 sq. ft. $135
2018-08-31 Single Family Contemporary 3611 Lotus Waterford, MI 48329 $219,900 2,828 sq. ft. 13,068 sq. ft. $78
2018-08-31 Single Family 3919 Dill Drive Waterford, MI 48329 $425,000 2,270 sq. ft. 10,019 sq. ft. $187
2018-08-31 Single Family Raised Ranch 3706 Lorena Drive Waterford, MI 48329 $179,900 1,720 sq. ft. 11,326 sq. ft. $105
2018-08-30 Single Family Contemporary 3120 Francesca Drive Waterford, MI 48329 $219,900 2,367 sq. ft. 12,632 sq. ft. $93
2018-08-30 Single Family Bungalow; Ranch 2971 Sunderland Waterford, MI 48329 $229,000 932 sq. ft. 10,890 sq. ft. $246
2018-08-27 Single Family Ranch 3726 Clintonville Road Waterford, MI 48329 $194,500 1,122 sq. ft. 11,326 sq. ft. $173
2018-08-27 Single Family Colonial 6015 Rolton Court Waterford, MI 48329 $699,900 3,450 sq. ft. 21,780 sq. ft. $203
2018-08-27 Single Family Contemporary 4241 Blain Island Road Waterford, MI 48329 $1,295,000 6,009 sq. ft. 38,333 sq. ft. $216
2018-08-27 Single Family Colonial 220 Fountain Park Drive Waterford, MI 48327 $215,900 1,800 sq. ft. $120
2018-08-24 Single Family Ranch 656 Reynolds Drive Waterford, MI 48328 $219,900 1,937 sq. ft. 40,946 sq. ft. $114
2018-08-23 Single Family Tudor 2515 Litchfield Drive Waterford, MI 48329 $264,900 1,888 sq. ft. 25,700 sq. ft. $140
2018-08-23 Single Family 6383 Elizabeth Lake Road Waterford, MI 48327 $189,900 1,728 sq. ft. 89,734 sq. ft. $110
2018-08-22 Single Family Ranch 1375 Nokomis Way Waterford, MI 48328 $155,000 1,255 sq. ft. 10,890 sq. ft. $124
2018-08-22 Single Family Ranch 719 Sheryl Drive Waterford, MI 48328 $184,900 1,100 sq. ft. 11,761 sq. ft. $168
2018-08-16 Single Family Ranch 4097 Woodmont Drive Waterford, MI 48329 $189,000 1,841 sq. ft. 12,632 sq. ft. $103
2018-08-16 Single Family Ranch 4680 Forest Avenue Waterford, MI 48328 $164,900 1,246 sq. ft. 15,246 sq. ft. $132
2018-08-15 Single Family Ranch 5597 Elizabeth Lake Road Waterford, MI 48327 $159,900 1,113 sq. ft. 7,405 sq. ft. $144
2018-08-14 Single Family 5462 Crescent Road Waterford, MI 48327 $229,900 1,852 sq. ft. 32,234 sq. ft. $124
2018-08-14 Single Family Ranch 2729 Onagon Waterford, MI 48328 $234,900 1,895 sq. ft. 14,810 sq. ft. $124
2018-08-14 Single Family Colonial 5150 Shoreline Boulevard Waterford, MI 48329 $239,900 1,937 sq. ft. 13,939 sq. ft. $124
2018-08-13 Single Family 5440 Mikewood Drive Waterford, MI 48327 $169,900 1,496 sq. ft. 11,761 sq. ft. $114
2018-08-12 Single Family Bungalow 7720 Bridge Road Waterford, MI 48329 $149,900 1,428 sq. ft. 11,326 sq. ft. $105
2018-08-12 Single Family Ranch 667 Joyceil Drive Waterford, MI 48328 $189,000 2,136 sq. ft. 12,197 sq. ft. $88
2018-08-09 Single Family Colonial; Contemporary 3130 Lexington Road Waterford, MI 48328 $529,000 2,654 sq. ft. 14,810 sq. ft. $199
2018-08-09 Single Family Colonial 5906 King James Lane Waterford, MI 48327 $199,900 1,930 sq. ft. 8,276 sq. ft. $104
2018-08-08 Single Family Cape Cod 4149 Quillen Avenue Waterford, MI 48329 $170,000 1,538 sq. ft. $111
2018-08-08 Single Family Colonial 2986 Nottingham Waterford, MI 48329 $219,000 1,610 sq. ft. 10,019 sq. ft. $136
2018-08-08 Single Family Ranch 1079 Lakeview Street Waterford, MI 48328 $100,000 1,162 sq. ft. 5,663 sq. ft. $86
2018-08-07 Single Family Colonial 5720 Coach House Court Waterford, MI 48327 $214,900 1,619 sq. ft. 9,583 sq. ft. $133
2018-08-07 Single Family Contemporary 7095 Lanore Street Waterford, MI 48327 $249,999 2,850 sq. ft. 14,375 sq. ft. $88
2018-08-07 Single Family Tudor 4160 Shore Street Waterford, MI 48328 $1,189,000 3,785 sq. ft. 14,375 sq. ft. $314
2018-08-06 Single Family Manufactured With Land 3970 Florman Waterford, MI 48329 $185,000 1,464 sq. ft. 63,162 sq. ft. $126
2018-08-04 Single Family Ranch 930 Seyburn Avenue Waterford, MI 48327 $224,911 1,350 sq. ft. 9,583 sq. ft. $167
2018-08-03 Single Family Ranch 2190 Marston Drive Waterford, MI 48327 $114,900 816 sq. ft. 16,553 sq. ft. $141
2018-07-30 Single Family Ranch 3540 Hatfield Drive Waterford, MI 48329 $148,000 1,735 sq. ft. 16,553 sq. ft. $85
2018-07-27 Single Family Bungalow; Ranch 2301 Ellery Avenue Waterford, MI 48327 $130,000 1,099 sq. ft. 9,583 sq. ft. $118
2018-07-26 Single Family Ranch 3618 Breaker Street Waterford, MI 48329 $197,900 1,088 sq. ft. 11,326 sq. ft. $182
2018-07-26 Single Family Ranch 2670 Mott Avenue Waterford, MI 48328 $119,900 765 sq. ft. 7,405 sq. ft. $157
2018-07-26 Single Family Ranch 6639 Windiate Road Waterford, MI 48329 $289,900 1,628 sq. ft. 14,375 sq. ft. $178
2018-07-25 Single Family Colonial 3832 Mapleleaf Road Waterford, MI 48328 $214,900 2,700 sq. ft. 6,534 sq. ft. $80
2018-07-21 Single Family Colonial 1139 Forest Bay Drive Waterford, MI 48328 $399,900 3,577 sq. ft. 16,553 sq. ft. $112
2018-07-19 Single Family Ranch 5555 Elizabeth Lake Road Waterford, MI 48327 $217,000 1,658 sq. ft. 21,780 sq. ft. $131
2018-07-18 Single Family Bungalow 5610 Croswell Road Waterford, MI 48327 $179,900 1,630 sq. ft. 62,291 sq. ft. $110
2018-07-15 Single Family Colonial 2816 Moosewood Drive Waterford, MI 48329 $289,900 2,000 sq. ft. $145
2018-07-15 Single Family Ranch 2826 Moosewood Drive Waterford, MI 48329 $284,900 1,550 sq. ft. $184
2018-07-14 Single Family Ranch 217 Reymont Road Waterford, MI 48327 $274,900 1,192 sq. ft. 10,454 sq. ft. $231
2018-07-12 Single Family Ranch 7760 Maceday Lake Road Waterford, MI 48329 $179,500 1,092 sq. ft. 19,602 sq. ft. $164
2018-07-09 Single Family Colonial 5038 Durnham Drive Waterford, MI 48327 $549,900 2,094 sq. ft. 8,276 sq. ft. $263
2018-07-02 Single Family Colonial 3437 Walton Boulevard Waterford, MI 48329 $279,900 2,608 sq. ft. 17,860 sq. ft. $107
2018-07-02 Single Family Colonial 1406 Forest Bay Drive Waterford, MI 48328 $599,900 4,288 sq. ft. $140
2018-06-28 Single Family Ranch 3435 Signet Waterford, MI 48329 $69,900 733 sq. ft. 6,098 sq. ft. $95
2018-06-26 Single Family Ranch 6464 Crest Drive Waterford, MI 48329 $199,900 1,667 sq. ft. 14,810 sq. ft. $120
2018-06-21 Single Family 1399 Dundee Drive Waterford, MI 48327 $179,900 1,549 sq. ft. 16,117 sq. ft. $116
2018-06-20 Single Family Colonial; Farmhouse 3550 Watkins Lake Road Waterford, MI 48328 $199,900 1,536 sq. ft. 87,120 sq. ft. $130
2018-06-20 Single Family Colonial 2587 Lovington Lane Waterford, MI 48329 $239,900 2,104 sq. ft. 10,890 sq. ft. $114
2018-06-16 Single Family Bungalow 1201 Beachland Boulevard Waterford, MI 48328 $225,000 991 sq. ft. 6,098 sq. ft. $227
2018-06-15 Single Family Colonial 2985 Pontiac Lake Road Waterford, MI 48328 $79,900 1,772 sq. ft. 25,700 sq. ft. $45
2018-06-14 Single Family Colonial 3153 Mcdowell Drive Waterford, MI 48328 $477,500 2,572 sq. ft. 13,068 sq. ft. $186
2018-06-13 Single Family Ranch 2366 Highfield Road Waterford, MI 48329 $260,000 1,642 sq. ft. 12,197 sq. ft. $158
2018-06-13 Single Family Colonial 6839 Brightwood Court Waterford, MI 48327 $299,900 2,992 sq. ft. 9,583 sq. ft. $100
2018-06-06 Single Family Ranch 550 Pinegrove Avenue Waterford, MI 48327 $169,900 1,242 sq. ft. 11,326 sq. ft. $137
2018-06-05 Single Family Ranch 4214 Lamont Drive Waterford, MI 48329 $475,000 1,452 sq. ft. 26,136 sq. ft. $327
2018-06-02 Single Family Ranch 3434 Airport Road Waterford, MI 48329 $174,900 1,564 sq. ft. 7,841 sq. ft. $112
2018-05-31 Single Family Ranch 1400 Bamford Drive Waterford, MI 48328 $219,900 1,300 sq. ft. 7,841 sq. ft. $169
2018-05-31 Single Family Ranch 4881 Fiddle Avenue Waterford, MI 48328 $99,900 1,308 sq. ft. 17,424 sq. ft. $76
2018-05-25 Single Family Ranch 4837 Motorway Drive Waterford, MI 48328 $599,900 3,787 sq. ft. 27,007 sq. ft. $158
2018-05-25 Single Family Ranch 2831 Barkman Drive Waterford, MI 48329 $475,000 2,000 sq. ft. 54,014 sq. ft. $238
2018-05-24 Single Family Ranch 497 Beverly Island Drive Waterford, MI 48328 $889,900 1,480 sq. ft. 43,996 sq. ft. $601
2018-05-19 Single Family Raised Ranch; Ranch 3930 Lamont Drive Waterford, MI 48329 $375,000 1,020 sq. ft. 8,712 sq. ft. $368
2018-05-17 Single Family 2720 Merelus Drive Waterford, MI 48329 $185,000 1,548 sq. ft. 15,246 sq. ft. $120
2018-05-06 Single Family Colonial; Contemporary 5010 Sherwell Drive Waterford, MI 48327 $1,795,000 5,137 sq. ft. 23,958 sq. ft. $349
2018-05-06 Single Family Contemporary 2839 Williams Lake Road Waterford, MI 48329 $234,900 1,726 sq. ft. 23,958 sq. ft. $136
2018-05-06 Single Family Bungalow 3895 Florman Waterford, MI 48329 $154,900 1,301 sq. ft. 23,522 sq. ft. $119
2018-04-13 Single Family Colonial 2908 Lola Court Waterford, MI 48329 $499,900 3,249 sq. ft. 16,988 sq. ft. $154
2018-03-20 Single Family Ranch 3414 Curwood Street Waterford, MI 48329 $98,700 650 sq. ft. 4,792 sq. ft. $152
2018-02-08 Single Family Ranch 2394 Silver Circle Waterford, MI 48328 $110,000 779 sq. ft. 4,792 sq. ft. $141
2018-01-02 Single Family Colonial 4833 Parkridge Drive Waterford, MI 48329 $194,900 2,012 sq. ft. 8,712 sq. ft. $97
2017-11-20 Single Family Ranch 6741 Highland Road Waterford, MI 48327 $355,555 2,207 sq. ft. 219,107 sq. ft. $161
2017-09-01 Single Family Contemporary 4562 Shore Street Waterford, MI 48328 $1,500,000 4,651 sq. ft. 22,651 sq. ft. $323
2017-03-24 Single Family Colonial; Contemporary 3184 Pine Tree Court Waterford, MI 48329 $850,000 4,464 sq. ft. 11,761 sq. ft. $190
2017-03-20 Single Family Ranch 6579 Longworth Waterford, MI 48329 $1,999,000 2,390 sq. ft. 43,560 sq. ft. $836
2016-08-13 Single Family Colonial 2841 Moosewood Drive Waterford, MI 48329 $274,900 1,850 sq. ft. $149